createdAt,value
2023-04-16T00:25:25.812Z,1018.57
2023-04-16T01:22:59.399Z,1018.76
2023-04-16T01:51:46.301Z,1018.87
2023-04-16T02:20:30.879Z,1018.86
2023-04-16T02:49:16.232Z,1018.97
2023-04-16T03:18:06.391Z,1018.98
2023-04-16T03:46:56.852Z,1019
2023-04-16T04:15:38.447Z,1019.07
2023-04-16T04:44:28.305Z,1019.29
2023-04-16T05:13:21.595Z,1019.46
2023-04-16T05:42:10.369Z,1019.9
2023-04-16T06:10:58.227Z,1020.21
2023-04-16T06:39:41.385Z,1020.44
2023-04-16T07:08:24.421Z,1020.66
2023-04-16T07:37:09.233Z,1020.7
2023-04-16T08:05:58.285Z,1020.94
2023-04-16T08:34:44.804Z,1021.23
2023-04-16T09:03:28.439Z,1021.46
2023-04-16T10:00:45.771Z,1021.64
2023-04-16T10:29:31.303Z,1021.73
2023-04-16T10:58:07.995Z,1021.68
2023-04-16T11:26:42.916Z,1021.73
2023-04-16T11:55:18.685Z,1021.69
2023-04-16T12:23:51.492Z,1021.84
2023-04-16T12:52:27.803Z,1021.96
2023-04-16T13:20:53.112Z,1021.99
2023-04-16T13:49:30.092Z,1022.13
2023-04-16T14:18:10.279Z,1022.09
2023-04-16T14:46:47.869Z,1022.05
2023-04-16T15:15:31.344Z,1022.12
2023-04-16T15:44:10.848Z,1022.15
2023-04-16T16:12:47.059Z,1022.2
2023-04-16T16:41:25.926Z,1022.43
2023-04-16T17:09:44.894Z,1022.47
2023-04-16T17:38:20.667Z,1022.58
2023-04-16T18:07:04.150Z,1022.7
2023-04-16T18:35:42.192Z,1022.83
2023-04-16T19:04:30.462Z,1022.91
2023-04-16T19:33:21.821Z,1022.92
2023-04-16T20:02:10.985Z,1022.99
2023-04-16T20:30:50.199Z,1022.95
2023-04-16T20:59:42.309Z,1022.78
2023-04-16T21:28:32.416Z,1022.7
2023-04-16T21:57:27.336Z,1022.68
2023-04-16T22:26:28.497Z,1022.64
2023-04-16T23:24:13.567Z,1022.4
2023-04-16T23:53:09.639Z,1022.39
